CheckWX is a tool to help pilots better visualize weather data.  It is not intended as a substitute for an official pre-flight weather briefing.

08:39:42 UTC

KBVX METAR
Batesville Regional Airport
Batesville, Arkansas, USA
Current

17 mins ago

KBVX 190823Z AUTO 00000KT 7SM RA BKN008 OVC047 18/17 A2979 RMK AO2 LTG DSNT SW TSE01 CIG 004V012 P0001
Observed
May-19 @ 08:23 UTC
Visibility
7 SM
Flight Rules
IFR
Conditions
Rain
Cloud Levels
  • Broken at 800' AGL
  • Overcast at 4,700' AGL
Temperature
18°C / 64°F
Dewpoint
17°C / 63°F
Humidity
94%
Altimeter
29.79" Hg
Pressure
1008.82 hPa
Current Rain
0.01"
Previous

33 mins ago

KBVX 190807Z AUTO 00000KT 8SM RA SCT008 BKN032 OVC055 18/17 A2978 RMK AO2 LTG DSNT N AND NW TSE01 P0000
Observed
May-19 @ 08:07 UTC
Visibility
8 SM
Flight Rules
VFR
Conditions
Rain
Cloud Levels
  • Scattered at 800' AGL
  • Broken at 3,200' AGL
  • Overcast at 5,500' AGL
Temperature
18°C / 64°F
Dewpoint
17°C / 63°F
Humidity
94%
Altimeter
29.78" Hg
Pressure
1008.42 hPa
Current Rain
0.01"
Previous

44 mins ago

KBVX 190756Z AUTO 00000KT 4SM VCTS RA BR SCT008 BKN032 OVC065 18/17 A2978 RMK AO2 LTG DSNT NW TSB46RAB07 SLP080 P0004 T01780172
Observed
May-19 @ 07:56 UTC
Visibility
4 SM
Flight Rules
MVFR
Conditions
Area Thunderstorm, Rain, Mist
Cloud Levels
  • Scattered at 800' AGL
  • Broken at 3,200' AGL
  • Overcast at 6,500' AGL
Temperature
18°C / 64°F
Dewpoint
17°C / 63°F
Humidity
94%
Altimeter
29.78" Hg
Pressure
1008.42 hPa
Current Rain
0.04"